sensor_id;sensor_type;location;lat;lon;timestamp;pressure;altitude;pressure_sealevel;temperature;humidity
64064;BME280;50314;50.618;10.642;2023-11-19T00:01:13;96476.06;;;16.88;26.25
64064;BME280;50314;50.618;10.642;2023-11-19T00:03:39;96468.91;;;16.88;26.28
64064;BME280;50314;50.618;10.642;2023-11-19T00:06:05;96474.22;;;16.88;26.48
64064;BME280;50314;50.618;10.642;2023-11-19T00:08:31;96463.59;;;16.88;26.12
64064;BME280;50314;50.618;10.642;2023-11-19T00:10:57;96454.97;;;16.86;26.30
64064;BME280;50314;50.618;10.642;2023-11-19T00:13:22;96459.44;;;16.86;26.46
64064;BME280;50314;50.618;10.642;2023-11-19T00:15:48;96459.59;;;16.84;26.48
64064;BME280;50314;50.618;10.642;2023-11-19T00:18:14;96456.94;;;16.84;26.31
64064;BME280;50314;50.618;10.642;2023-11-19T00:20:39;96452.44;;;16.85;26.37
64064;BME280;50314;50.618;10.642;2023-11-19T00:23:05;96443.81;;;16.83;26.55
64064;BME280;50314;50.618;10.642;2023-11-19T00:25:31;96453.63;;;16.82;26.40
64064;BME280;50314;50.618;10.642;2023-11-19T00:27:57;96444.94;;;16.80;26.52
64064;BME280;50314;50.618;10.642;2023-11-19T00:30:23;96446.06;;;16.78;26.37
64064;BME280;50314;50.618;10.642;2023-11-19T00:32:49;96448.91;;;16.76;26.56
64064;BME280;50314;50.618;10.642;2023-11-19T00:35:14;96449.72;;;16.77;26.29
64064;BME280;50314;50.618;10.642;2023-11-19T00:37:40;96440.91;;;16.76;26.41
64064;BME280;50314;50.618;10.642;2023-11-19T00:40:08;96441.06;;;16.75;26.42
64064;BME280;50314;50.618;10.642;2023-11-19T00:42:35;96435.91;;;16.73;26.61
64064;BME280;50314;50.618;10.642;2023-11-19T00:45:01;96434.09;;;16.74;26.35
64064;BME280;50314;50.618;10.642;2023-11-19T00:47:27;96431.59;;;16.72;26.41
64064;BME280;50314;50.618;10.642;2023-11-19T00:49:52;96429.91;;;16.71;26.60
64064;BME280;50314;50.618;10.642;2023-11-19T00:52:18;96430.06;;;16.70;26.26
64064;BME280;50314;50.618;10.642;2023-11-19T00:54:44;96424.91;;;16.68;26.37
64064;BME280;50314;50.618;10.642;2023-11-19T00:57:10;96410.94;;;16.66;26.30
64064;BME280;50314;50.618;10.642;2023-11-19T00:59:35;96394.16;;;16.65;26.33
64064;BME280;50314;50.618;10.642;2023-11-19T01:02:01;96391.50;;;16.65;26.30
64064;BME280;50314;50.618;10.642;2023-11-19T01:04:34;96405.25;;;16.61;26.52
64064;BME280;50314;50.618;10.642;2023-11-19T01:07:03;96400.44;;;16.56;26.66
64064;BME280;50314;50.618;10.642;2023-11-19T01:09:30;96397.78;;;16.56;26.49
64064;BME280;50314;50.618;10.642;2023-11-19T01:11:57;96390.63;;;16.57;26.57
64064;BME280;50314;50.618;10.642;2023-11-19T01:14:23;96395.94;;;16.57;26.55
64064;BME280;50314;50.618;10.642;2023-11-19T01:16:50;96392.44;;;16.56;26.43
64064;BME280;50314;50.618;10.642;2023-11-19T01:19:16;96397.91;;;16.55;26.60
64064;BME280;50314;50.618;10.642;2023-11-19T01:21:41;96391.94;;;16.53;26.79
64064;BME280;50314;50.618;10.642;2023-11-19T01:24:08;96406.22;;;16.52;26.60
64064;BME280;50314;50.618;10.642;2023-11-19T01:26:35;96411.53;;;16.52;26.74
64064;BME280;50314;50.618;10.642;2023-11-19T01:29:00;96405.53;;;16.50;26.51
64064;BME280;50314;50.618;10.642;2023-11-19T01:31:26;96387.94;;;16.49;26.51
64064;BME280;50314;50.618;10.642;2023-11-19T01:33:52;96383.75;;;16.46;26.50
64064;BME280;50314;50.618;10.642;2023-11-19T01:36:18;96386.41;;;16.46;26.75
64064;BME280;50314;50.618;10.642;2023-11-19T01:38:44;96368.94;;;16.43;26.56
64064;BME280;50314;50.618;10.642;2023-11-19T01:41:10;96358.31;;;16.43;26.54
64064;BME280;50314;50.618;10.642;2023-11-19T01:43:37;96358.31;;;16.43;26.54
64064;BME280;50314;50.618;10.642;2023-11-19T01:46:05;96351.34;;;16.42;26.61
64064;BME280;50314;50.618;10.642;2023-11-19T01:48:34;96344.69;;;16.38;26.59
64064;BME280;50314;50.618;10.642;2023-11-19T01:51:01;96344.69;;;16.38;26.56
64064;BME280;50314;50.618;10.642;2023-11-19T01:53:28;96353.63;;;16.37;26.74
64064;BME280;50314;50.618;10.642;2023-11-19T01:55:54;96349.63;;;16.33;26.73
64064;BME280;50314;50.618;10.642;2023-11-19T01:58:22;96333.16;;;16.30;26.90
64064;BME280;50314;50.618;10.642;2023-11-19T02:00:48;96333.16;;;16.30;26.87
64064;BME280;50314;50.618;10.642;2023-11-19T02:03:14;96322.72;;;16.28;26.71
64064;BME280;50314;50.618;10.642;2023-11-19T02:05:41;96300.47;;;16.29;26.81
64064;BME280;50314;50.618;10.642;2023-11-19T02:08:07;96296.13;;;16.28;26.92
64064;BME280;50314;50.618;10.642;2023-11-19T02:10:33;96299.13;;;16.25;26.83
64064;BME280;50314;50.618;10.642;2023-11-19T02:13:00;96296.78;;;16.22;26.77
64064;BME280;50314;50.618;10.642;2023-11-19T02:15:26;96303.06;;;16.21;26.83
64064;BME280;50314;50.618;10.642;2023-11-19T02:17:52;96287.47;;;16.18;26.97
64064;BME280;50314;50.618;10.642;2023-11-19T02:20:18;96279.81;;;16.15;27.18
64064;BME280;50314;50.618;10.642;2023-11-19T02:22:49;96276.47;;;16.13;27.04
64064;BME280;50314;50.618;10.642;2023-11-19T02:25:32;96286.03;;;16.06;26.97
64064;BME280;50314;50.618;10.642;2023-11-19T02:28:02;96277.75;;;16.09;27.01
64064;BME280;50314;50.618;10.642;2023-11-19T02:30:28;96288.50;;;16.07;27.01
64064;BME280;50314;50.618;10.642;2023-11-19T02:32:58;96280.03;;;16.04;27.11
64064;BME280;50314;50.618;10.642;2023-11-19T02:35:26;96261.44;;;16.04;27.12
64064;BME280;50314;50.618;10.642;2023-11-19T02:37:52;96258.13;;;16.02;27.12
64064;BME280;50314;50.618;10.642;2023-11-19T02:40:17;96268.88;;;16.00;27.11
64064;BME280;50314;50.618;10.642;2023-11-19T02:42:44;96271.41;;;16.02;27.12
64064;BME280;50314;50.618;10.642;2023-11-19T02:45:10;96268.75;;;16.02;27.04
64064;BME280;50314;50.618;10.642;2023-11-19T02:47:42;96259.44;;;15.97;27.07
64064;BME280;50314;50.618;10.642;2023-11-19T02:50:11;96258.75;;;15.95;27.06
64064;BME280;50314;50.618;10.642;2023-11-19T02:52:49;96259.06;;;15.92;27.29
64064;BME280;50314;50.618;10.642;2023-11-19T02:55:15;96251.78;;;15.94;27.21
64064;BME280;50314;50.618;10.642;2023-11-19T02:57:43;96247.59;;;15.92;27.17
64064;BME280;50314;50.618;10.642;2023-11-19T03:00:17;96246.25;;;15.88;27.22
64064;BME280;50314;50.618;10.642;2023-11-19T03:02:46;96236.47;;;15.88;27.20
64064;BME280;50314;50.618;10.642;2023-11-19T03:05:16;96230.47;;;15.86;27.24
64064;BME280;50314;50.618;10.642;2023-11-19T03:07:43;96223.31;;;15.87;27.33
64064;BME280;50314;50.618;10.642;2023-11-19T03:10:12;96225.84;;;15.88;27.17
64064;BME280;50314;50.618;10.642;2023-11-19T03:12:41;96212.88;;;15.85;27.33
64064;BME280;50314;50.618;10.642;2023-11-19T03:15:08;96211.22;;;15.84;27.12
64064;BME280;50314;50.618;10.642;2023-11-19T03:17:40;96216.53;;;15.84;27.26
64064;BME280;50314;50.618;10.642;2023-11-19T03:20:08;96204.41;;;15.82;27.35
64064;BME280;50314;50.618;10.642;2023-11-19T03:22:40;96208.81;;;15.73;27.49
64064;BME280;50314;50.618;10.642;2023-11-19T03:25:07;96198.56;;;15.78;27.37
64064;BME280;50314;50.618;10.642;2023-11-19T03:27:37;96202.53;;;15.74;27.44
64064;BME280;50314;50.618;10.642;2023-11-19T03:30:10;96190.91;;;15.75;27.37
64064;BME280;50314;50.618;10.642;2023-11-19T03:32:36;96192.75;;;15.74;27.21
64064;BME280;50314;50.618;10.642;2023-11-19T03:35:04;96190.75;;;15.77;27.30
64064;BME280;50314;50.618;10.642;2023-11-19T03:37:32;96188.25;;;15.75;27.39
64064;BME280;50314;50.618;10.642;2023-11-19T03:39:58;96192.75;;;15.74;27.34
64064;BME280;50314;50.618;10.642;2023-11-19T03:42:28;96200.84;;;15.73;27.42
64064;BME280;50314;50.618;10.642;2023-11-19T03:44:56;96203.69;;;15.71;27.34
64064;BME280;50314;50.618;10.642;2023-11-19T03:47:22;96194.19;;;15.69;27.40
64064;BME280;50314;50.618;10.642;2023-11-19T03:49:51;96193.69;;;15.65;27.50
64064;BME280;50314;50.618;10.642;2023-11-19T03:52:19;96184.91;;;15.65;27.62
64064;BME280;50314;50.618;10.642;2023-11-19T03:54:45;96179.59;;;15.65;27.45
64064;BME280;50314;50.618;10.642;2023-11-19T03:57:14;96181.41;;;15.64;27.54
64064;BME280;50314;50.618;10.642;2023-11-19T03:59:41;96186.56;;;15.66;27.42
64064;BME280;50314;50.618;10.642;2023-11-19T04:02:07;96187.53;;;15.65;27.36
64064;BME280;50314;50.618;10.642;2023-11-19T04:04:33;96179.72;;;15.63;27.56
64064;BME280;50314;50.618;10.642;2023-11-19T04:07:00;96177.25;;;15.62;27.56
64064;BME280;50314;50.618;10.642;2023-11-19T04:09:26;96177.88;;;15.56;27.48
64064;BME280;50314;50.618;10.642;2023-11-19T04:11:51;96170.28;;;15.61;27.40
64064;BME280;50314;50.618;10.642;2023-11-19T04:14:17;96157.97;;;15.60;27.44
64064;BME280;50314;50.618;10.642;2023-11-19T04:16:44;96158.81;;;15.60;27.29
64064;BME280;50314;50.618;10.642;2023-11-19T04:19:11;96171.41;;;15.58;27.41
64064;BME280;50314;50.618;10.642;2023-11-19T04:21:37;96163.59;;;15.57;27.60
64064;BME280;50314;50.618;10.642;2023-11-19T04:24:02;96150.50;;;15.55;27.59
64064;BME280;50314;50.618;10.642;2023-11-19T04:26:28;96151.31;;;15.56;27.42
64064;BME280;50314;50.618;10.642;2023-11-19T04:28:54;96156.63;;;15.56;27.72
64064;BME280;50314;50.618;10.642;2023-11-19T04:31:19;96151.31;;;15.56;27.46
64064;BME280;50314;50.618;10.642;2023-11-19T04:33:45;96148.66;;;15.56;27.48
64064;BME280;50314;50.618;10.642;2023-11-19T04:36:11;96153.16;;;15.55;27.62
64064;BME280;50314;50.618;10.642;2023-11-19T04:38:37;96163.78;;;15.55;27.46
64064;BME280;50314;50.618;10.642;2023-11-19T04:41:05;96157.78;;;15.53;27.64
64064;BME280;50314;50.618;10.642;2023-11-19T04:43:31;96155.28;;;15.52;27.76
64064;BME280;50314;50.618;10.642;2023-11-19T04:45:58;96146.31;;;15.53;27.57
64064;BME280;50314;50.618;10.642;2023-11-19T04:48:26;96139.38;;;15.52;27.57
64064;BME280;50314;50.618;10.642;2023-11-19T04:50:52;96138.53;;;15.51;27.48
64064;BME280;50314;50.618;10.642;2023-11-19T04:53:18;96134.06;;;15.52;27.60
64064;BME280;50314;50.618;10.642;2023-11-19T04:55:43;96142.16;;;15.50;27.46
64064;BME280;50314;50.618;10.642;2023-11-19T04:58:09;96153.63;;;15.50;27.43
64064;BME280;50314;50.618;10.642;2023-11-19T05:00:35;96143.16;;;15.49;27.53
64064;BME280;50314;50.618;10.642;2023-11-19T05:03:00;96140.50;;;15.49;27.51
64064;BME280;50314;50.618;10.642;2023-11-19T05:05:26;96133.38;;;15.49;27.53
64064;BME280;50314;50.618;10.642;2023-11-19T05:07:52;96132.41;;;15.50;27.66
64064;BME280;50314;50.618;10.642;2023-11-19T05:10:18;96127.09;;;15.50;27.46
64064;BME280;50314;50.618;10.642;2023-11-19T05:12:44;96128.88;;;15.50;27.49
64064;BME280;50314;50.618;10.642;2023-11-19T05:15:10;96132.41;;;15.50;27.54
64064;BME280;50314;50.618;10.642;2023-11-19T05:17:37;96118.63;;;15.47;27.79
64064;BME280;50314;50.618;10.642;2023-11-19T05:20:05;96122.25;;;15.46;27.70
64064;BME280;50314;50.618;10.642;2023-11-19T05:22:35;96130.38;;;15.44;27.76
64064;BME280;50314;50.618;10.642;2023-11-19T05:25:02;96115.41;;;15.43;27.74
64064;BME280;50314;50.618;10.642;2023-11-19T05:27:28;96119.91;;;15.43;27.53
64064;BME280;50314;50.618;10.642;2023-11-19T05:29:54;96124.38;;;15.42;27.74
64064;BME280;50314;50.618;10.642;2023-11-19T05:32:19;96123.38;;;15.43;27.76
64064;BME280;50314;50.618;10.642;2023-11-19T05:34:46;96113.78;;;15.42;27.73
64064;BME280;50314;50.618;10.642;2023-11-19T05:37:11;96115.75;;;15.40;27.65
64064;BME280;50314;50.618;10.642;2023-11-19T05:39:37;96118.53;;;15.39;27.95
64064;BME280;50314;50.618;10.642;2023-11-19T05:42:03;96121.34;;;15.37;27.85
64064;BME280;50314;50.618;10.642;2023-11-19T05:44:29;96124.97;;;15.36;27.57
64064;BME280;50314;50.618;10.642;2023-11-19T05:46:56;96128.47;;;15.37;27.88
64064;BME280;50314;50.618;10.642;2023-11-19T05:49:21;96130.28;;;15.36;27.73
64064;BME280;50314;50.618;10.642;2023-11-19T05:51:47;96126.66;;;15.37;27.71
64064;BME280;50314;50.618;10.642;2023-11-19T05:54:13;96125.84;;;15.37;27.78
64064;BME280;50314;50.618;10.642;2023-11-19T05:56:38;96125.16;;;15.35;27.80
64064;BME280;50314;50.618;10.642;2023-11-19T05:59:04;96128.63;;;15.35;27.90
64064;BME280;50314;50.618;10.642;2023-11-19T06:01:35;96120.84;;;15.34;27.64
64064;BME280;50314;50.618;10.642;2023-11-19T06:04:01;96118.00;;;15.35;27.81
64064;BME280;50314;50.618;10.642;2023-11-19T06:06:28;96119.66;;;15.36;27.96
64064;BME280;50314;50.618;10.642;2023-11-19T06:08:54;96117.19;;;15.35;27.77
64064;BME280;50314;50.618;10.642;2023-11-19T06:11:20;96120.84;;;15.34;27.88
64064;BME280;50314;50.618;10.642;2023-11-19T06:13:49;96112.19;;;15.32;27.95
64064;BME280;50314;50.618;10.642;2023-11-19T06:16:15;96105.06;;;15.32;27.73
64064;BME280;50314;50.618;10.642;2023-11-19T06:18:41;96111.19;;;15.33;27.95
64064;BME280;50314;50.618;10.642;2023-11-19T06:21:06;96109.38;;;15.33;28.01
64064;BME280;50314;50.618;10.642;2023-11-19T06:23:32;96109.22;;;15.35;27.91
64064;BME280;50314;50.618;10.642;2023-11-19T06:25:58;96097.78;;;15.34;28.05
64064;BME280;50314;50.618;10.642;2023-11-19T06:28:24;96084.53;;;15.34;27.84
64064;BME280;50314;50.618;10.642;2023-11-19T06:30:50;96084.66;;;15.33;27.84
64064;BME280;50314;50.618;10.642;2023-11-19T06:33:15;96086.47;;;15.32;27.90
64064;BME280;50314;50.618;10.642;2023-11-19T06:35:41;96092.78;;;15.31;27.98
64064;BME280;50314;50.618;10.642;2023-11-19T06:38:07;96102.41;;;15.32;27.98
64064;BME280;50314;50.618;10.642;2023-11-19T06:40:34;96106.06;;;15.31;27.87
64064;BME280;50314;50.618;10.642;2023-11-19T06:43:03;96118.50;;;15.31;27.94
64064;BME280;50314;50.618;10.642;2023-11-19T06:45:30;96108.84;;;15.30;27.85
64064;BME280;50314;50.618;10.642;2023-11-19T06:47:55;96112.38;;;15.30;27.87
64064;BME280;50314;50.618;10.642;2023-11-19T06:50:21;96112.38;;;15.30;28.06
64064;BME280;50314;50.618;10.642;2023-11-19T06:52:47;96111.69;;;15.28;28.11
64064;BME280;50314;50.618;10.642;2023-11-19T06:55:13;96103.72;;;15.28;28.03
64064;BME280;50314;50.618;10.642;2023-11-19T06:57:39;96096.75;;;15.27;28.09
64064;BME280;50314;50.618;10.642;2023-11-19T07:00:06;96111.81;;;15.26;28.19
64064;BME280;50314;50.618;10.642;2023-11-19T07:02:31;96104.66;;;15.19;27.93
64064;BME280;50314;50.618;10.642;2023-11-19T07:04:59;96115.63;;;15.24;27.99
64064;BME280;50314;50.618;10.642;2023-11-19T07:07:25;96119.13;;;15.24;28.07
64064;BME280;50314;50.618;10.642;2023-11-19T07:09:51;96111.00;;;15.26;27.93
64064;BME280;50314;50.618;10.642;2023-11-19T07:12:17;96105.69;;;15.26;28.06
64064;BME280;50314;50.618;10.642;2023-11-19T07:14:43;96110.03;;;15.27;27.92
64064;BME280;50314;50.618;10.642;2023-11-19T07:17:08;96110.03;;;15.27;28.21
64064;BME280;50314;50.618;10.642;2023-11-19T07:19:35;96100.22;;;15.27;28.29
64064;BME280;50314;50.618;10.642;2023-11-19T07:22:02;96111.69;;;15.28;27.96
64064;BME280;50314;50.618;10.642;2023-11-19T07:24:27;96104.72;;;15.27;28.12
64064;BME280;50314;50.618;10.642;2023-11-19T07:26:54;96111.69;;;15.28;28.25
64064;BME280;50314;50.618;10.642;2023-11-19T07:29:20;96106.38;;;15.28;28.08
64064;BME280;50314;50.618;10.642;2023-11-19T07:31:48;96115.16;;;15.28;28.08
64064;BME280;50314;50.618;10.642;2023-11-19T07:34:14;96111.50;;;15.30;28.29
64064;BME280;50314;50.618;10.642;2023-11-19T07:36:40;96117.66;;;15.30;28.20
64064;BME280;50314;50.618;10.642;2023-11-19T07:39:06;96121.28;;;15.29;28.12
64064;BME280;50314;50.618;10.642;2023-11-19T07:41:33;96118.75;;;15.19;28.34
64064;BME280;50314;50.618;10.642;2023-11-19T07:44:00;96118.94;;;15.26;28.56
64064;BME280;50314;50.618;10.642;2023-11-19T07:46:26;96125.94;;;15.27;28.56
64064;BME280;50314;50.618;10.642;2023-11-19T07:48:54;96132.06;;;15.27;28.32
64064;BME280;50314;50.618;10.642;2023-11-19T07:51:19;96137.06;;;15.31;28.57
64064;BME280;50314;50.618;10.642;2023-11-19T07:53:45;96130.59;;;15.33;28.43
64064;BME280;50314;50.618;10.642;2023-11-19T07:56:11;96131.75;;;15.31;28.42
64064;BME280;50314;50.618;10.642;2023-11-19T07:58:36;96132.59;;;15.31;28.36
64064;BME280;50314;50.618;10.642;2023-11-19T08:01:02;96144.19;;;15.30;28.56
64064;BME280;50314;50.618;10.642;2023-11-19T08:03:28;96146.50;;;15.33;28.31
64064;BME280;50314;50.618;10.642;2023-11-19T08:05:57;96148.19;;;15.34;28.42
64064;BME280;50314;50.618;10.642;2023-11-19T08:08:27;96148.19;;;15.34;28.32
64064;BME280;50314;50.618;10.642;2023-11-19T08:10:55;96153.19;;;15.37;28.50
64064;BME280;50314;50.618;10.642;2023-11-19T08:13:23;96167.13;;;15.39;28.37
64064;BME280;50314;50.618;10.642;2023-11-19T08:15:48;96156.22;;;15.42;28.29
64064;BME280;50314;50.618;10.642;2023-11-19T08:18:14;96154.25;;;15.44;28.13
64064;BME280;50314;50.618;10.642;2023-11-19T08:20:40;96159.91;;;15.49;28.17
64064;BME280;50314;50.618;10.642;2023-11-19T08:23:06;96158.94;;;15.50;27.94
64064;BME280;50314;50.618;10.642;2023-11-19T08:25:32;96149.16;;;15.51;28.15
64064;BME280;50314;50.618;10.642;2023-11-19T08:27:59;96139.38;;;15.52;28.18
64064;BME280;50314;50.618;10.642;2023-11-19T08:30:25;96149.81;;;15.53;28.32
64064;BME280;50314;50.618;10.642;2023-11-19T08:32:51;96139.06;;;15.55;28.17
64064;BME280;50314;50.618;10.642;2023-11-19T08:35:16;96137.41;;;15.54;28.14
64064;BME280;50314;50.618;10.642;2023-11-19T08:37:42;96140.88;;;15.54;28.23
64064;BME280;50314;50.618;10.642;2023-11-19T08:40:09;96141.53;;;15.56;28.17
64064;BME280;50314;50.618;10.642;2023-11-19T08:42:34;96139.72;;;15.57;28.17
64064;BME280;50314;50.618;10.642;2023-11-19T08:45:00;96138.56;;;15.59;28.28
64064;BME280;50314;50.618;10.642;2023-11-19T08:47:26;96129.47;;;15.62;28.17
64064;BME280;50314;50.618;10.642;2023-11-19T08:49:53;96118.84;;;15.62;28.10
64064;BME280;50314;50.618;10.642;2023-11-19T08:52:20;96125.81;;;15.63;28.33
64064;BME280;50314;50.618;10.642;2023-11-19T08:54:46;96121.00;;;15.66;28.38
64064;BME280;50314;50.618;10.642;2023-11-19T08:57:11;96117.91;;;15.71;28.39
64064;BME280;50314;50.618;10.642;2023-11-19T08:59:37;96135.16;;;15.75;28.56
64064;BME280;50314;50.618;10.642;2023-11-19T09:02:07;96122.03;;;15.73;28.67
64064;BME280;50314;50.618;10.642;2023-11-19T09:04:33;96126.19;;;15.76;28.67
64064;BME280;50314;50.618;10.642;2023-11-19T09:06:59;96121.56;;;15.78;28.55
64064;BME280;50314;50.618;10.642;2023-11-19T09:09:24;96131.19;;;15.79;28.75
64064;BME280;50314;50.618;10.642;2023-11-19T09:11:51;96129.06;;;15.83;28.92
64064;BME280;50314;50.618;10.642;2023-11-19T09:14:16;96120.44;;;15.89;29.00
64064;BME280;50314;50.618;10.642;2023-11-19T09:16:43;96119.97;;;15.93;28.77
64064;BME280;50314;50.618;10.642;2023-11-19T09:19:11;96126.13;;;16.02;28.90
64064;BME280;50314;50.618;10.642;2023-11-19T09:21:36;96117.34;;;16.10;29.06
64064;BME280;50314;50.618;10.642;2023-11-19T09:24:05;96125.03;;;16.21;29.15
64064;BME280;50314;50.618;10.642;2023-11-19T09:26:32;96129.06;;;16.33;29.26
64064;BME280;50314;50.618;10.642;2023-11-19T09:28:58;96117.78;;;16.48;29.50
64064;BME280;50314;50.618;10.642;2023-11-19T09:31:26;96111.50;;;16.65;29.68
64064;BME280;50314;50.618;10.642;2023-11-19T09:33:51;96118.53;;;16.82;29.74
64064;BME280;50314;50.618;10.642;2023-11-19T09:39:39;96118.81;;;17.20;29.79
64064;BME280;50314;50.618;10.642;2023-11-19T09:42:13;96112.13;;;17.32;29.93
64064;BME280;50314;50.618;10.642;2023-11-19T09:44:41;96134.06;;;17.51;29.68
64064;BME280;50314;50.618;10.642;2023-11-19T09:47:11;96136.03;;;17.65;29.88
64064;BME280;50314;50.618;10.642;2023-11-19T09:49:38;96130.81;;;17.80;29.92
64064;BME280;50314;50.618;10.642;2023-11-19T09:52:04;96120.25;;;17.95;29.94
64064;BME280;50314;50.618;10.642;2023-11-19T09:54:29;96123.88;;;18.10;29.58
64064;BME280;50314;50.618;10.642;2023-11-19T09:56:57;96125.16;;;18.22;29.42
64064;BME280;50314;50.618;10.642;2023-11-19T09:59:30;96134.06;;;18.38;29.20
64064;BME280;50314;50.618;10.642;2023-11-19T10:02:01;96132.00;;;18.48;29.46
64064;BME280;50314;50.618;10.642;2023-11-19T10:04:30;96119.72;;;18.62;29.23
64064;BME280;50314;50.618;10.642;2023-11-19T10:06:56;96113.66;;;18.76;28.90
64064;BME280;50314;50.618;10.642;2023-11-19T10:09:22;96110.53;;;18.87;28.63
64064;BME280;50314;50.618;10.642;2023-11-19T10:11:53;96126.13;;;18.98;28.90
64064;BME280;50314;50.618;10.642;2023-11-19T10:14:23;96117.69;;;19.10;28.98
64064;BME280;50314;50.618;10.642;2023-11-19T10:16:49;96119.28;;;19.19;28.60
64064;BME280;50314;50.618;10.642;2023-11-19T10:19:31;96127.19;;;19.27;28.22
64064;BME280;50314;50.618;10.642;2023-11-19T10:22:12;96127.75;;;19.37;28.07
64064;BME280;50314;50.618;10.642;2023-11-19T10:24:44;96145.56;;;19.45;27.25
64064;BME280;50314;50.618;10.642;2023-11-19T10:27:10;96147.88;;;19.48;26.98
64064;BME280;50314;50.618;10.642;2023-11-19T10:29:38;96152.22;;;19.49;26.28
64064;BME280;50314;50.618;10.642;2023-11-19T10:32:04;96151.19;;;19.50;26.55
64064;BME280;50314;50.618;10.642;2023-11-19T10:34:30;96129.63;;;19.52;25.90
64064;BME280;50314;50.618;10.642;2023-11-19T10:36:56;96144.84;;;19.51;25.99
64064;BME280;50314;50.618;10.642;2023-11-19T10:39:51;96131.84;;;19.48;25.30
64064;BME280;50314;50.618;10.642;2023-11-19T10:42:16;96122.84;;;19.49;25.54
64064;BME280;50314;50.618;10.642;2023-11-19T10:44:42;96111.13;;;19.50;25.71
64064;BME280;50314;50.618;10.642;2023-11-19T10:47:08;96097.59;;;19.52;25.46
64064;BME280;50314;50.618;10.642;2023-11-19T10:49:34;96105.78;;;19.50;25.60
64064;BME280;50314;50.618;10.642;2023-11-19T10:52:01;96084.81;;;19.47;25.35
64064;BME280;50314;50.618;10.642;2023-11-19T10:54:27;96088.50;;;19.46;25.46
64064;BME280;50314;50.618;10.642;2023-11-19T10:56:57;96098.97;;;19.47;24.94
64064;BME280;50314;50.618;10.642;2023-11-19T10:59:25;96102.84;;;19.45;25.37
64064;BME280;50314;50.618;10.642;2023-11-19T11:01:53;96098.50;;;19.44;25.18
64064;BME280;50314;50.618;10.642;2023-11-19T11:04:24;96104.69;;;19.44;24.97
64064;BME280;50314;50.618;10.642;2023-11-19T11:06:51;96098.50;;;19.44;24.95
64064;BME280;50314;50.618;10.642;2023-11-19T11:09:19;96098.34;;;19.45;25.14
64064;BME280;50314;50.618;10.642;2023-11-19T11:11:47;96091.53;;;19.43;25.06
64064;BME280;50314;50.618;10.642;2023-11-19T11:14:13;96101.19;;;19.44;25.35
64064;BME280;50314;50.618;10.642;2023-11-19T11:16:43;96093.75;;;19.39;25.08
64064;BME280;50314;50.618;10.642;2023-11-19T11:19:10;96105.56;;;19.37;25.11
64064;BME280;50314;50.618;10.642;2023-11-19T11:21:39;96111.94;;;19.36;25.02
64064;BME280;50314;50.618;10.642;2023-11-19T11:30:33;96107.59;;;19.35;25.53
64064;BME280;50314;50.618;10.642;2023-11-19T11:38:22;96111.13;;;19.65;25.62
64064;BME280;50314;50.618;10.642;2023-11-19T11:41:22;96107.25;;;19.67;25.98
64064;BME280;50314;50.618;10.642;2023-11-19T11:43:56;96109.47;;;19.79;25.97
64064;BME280;50314;50.618;10.642;2023-11-19T11:49:08;96112.13;;;19.93;25.93
64064;BME280;50314;50.618;10.642;2023-11-19T11:57:04;96118.13;;;20.10;25.92
64064;BME280;50314;50.618;10.642;2023-11-19T11:59:37;96122.34;;;20.20;25.44
64064;BME280;50314;50.618;10.642;2023-11-19T12:02:03;96119.75;;;20.26;25.57
64064;BME280;50314;50.618;10.642;2023-11-19T12:04:29;96114.44;;;20.33;25.60
64064;BME280;50314;50.618;10.642;2023-11-19T12:07:06;96115.09;;;20.35;25.34
64064;BME280;50314;50.618;10.642;2023-11-19T12:09:32;96116.66;;;20.44;25.89
64064;BME280;50314;50.618;10.642;2023-11-19T12:20:02;96126.63;;;20.72;25.63
64064;BME280;50314;50.618;10.642;2023-11-19T12:22:28;96109.44;;;20.81;25.57
64064;BME280;50314;50.618;10.642;2023-11-19T12:24:54;96107.81;;;20.86;25.80
64064;BME280;50314;50.618;10.642;2023-11-19T12:27:21;96098.84;;;20.94;25.64
64064;BME280;50314;50.618;10.642;2023-11-19T12:29:48;96103.22;;;21.02;25.54
64064;BME280;50314;50.618;10.642;2023-11-19T12:32:14;96103.06;;;21.10;25.50
64064;BME280;50314;50.618;10.642;2023-11-19T12:34:40;96111.34;;;21.15;25.63
64064;BME280;50314;50.618;10.642;2023-11-19T12:37:06;96103.41;;;21.22;25.63
64064;BME280;50314;50.618;10.642;2023-11-19T12:39:32;96101.59;;;21.29;25.25
64064;BME280;50314;50.618;10.642;2023-11-19T12:41:58;96091.97;;;21.34;25.35
64064;BME280;50314;50.618;10.642;2023-11-19T12:44:26;96087.84;;;21.39;25.24
64064;BME280;50314;50.618;10.642;2023-11-19T12:47:05;96090.16;;;21.42;24.94
64064;BME280;50314;50.618;10.642;2023-11-19T12:49:36;96089.78;;;21.51;25.03
64064;BME280;50314;50.618;10.642;2023-11-19T12:52:02;96090.66;;;21.58;25.32
64064;BME280;50314;50.618;10.642;2023-11-19T12:54:36;96103.88;;;21.67;25.33
64064;BME280;50314;50.618;10.642;2023-11-19T12:57:03;96081.66;;;21.73;25.48
64064;BME280;50314;50.618;10.642;2023-11-19T12:59:33;96080.91;;;21.79;25.22
64064;BME280;50314;50.618;10.642;2023-11-19T13:01:59;96074.94;;;21.90;25.40
64064;BME280;50314;50.618;10.642;2023-11-19T13:04:29;96075.78;;;21.97;25.10
64064;BME280;50314;50.618;10.642;2023-11-19T13:06:59;96069.03;;;22.08;25.13
64064;BME280;50314;50.618;10.642;2023-11-19T13:09:28;96062.84;;;22.14;25.05
64064;BME280;50314;50.618;10.642;2023-11-19T13:11:55;96061.66;;;22.23;25.46
64064;BME280;50314;50.618;10.642;2023-11-19T13:14:36;96055.47;;;22.23;24.45
64064;BME280;50314;50.618;10.642;2023-11-19T13:17:03;96063.31;;;22.31;23.88
64064;BME280;50314;50.618;10.642;2023-11-19T13:19:30;96054.28;;;22.32;24.03
64064;BME280;50314;50.618;10.642;2023-11-19T13:21:59;96053.03;;;22.35;23.70